sensor_id;sensor_type;location;lat;lon;timestamp;pressure;altitude;pressure_sealevel;temperature;humidity
22025;BME280;11176;51.448;6.650;2023-04-28T00:00:00;36479.19;;;-141.29;75.83
22025;BME280;11176;51.448;6.650;2023-04-28T00:02:30;36564.88;;;-141.29;78.79
22025;BME280;11176;51.448;6.650;2023-04-28T00:04:57;36584.81;;;-141.29;78.81
22025;BME280;11176;51.448;6.650;2023-04-28T00:07:24;36513.06;;;-141.29;76.50
22025;BME280;11176;51.448;6.650;2023-04-28T00:09:50;36568.88;;;-141.29;77.35
22025;BME280;11176;51.448;6.650;2023-04-28T00:12:17;36588.81;;;-141.29;77.74
22025;BME280;11176;51.448;6.650;2023-04-28T00:14:43;36592.78;;;-141.29;78.15
22025;BME280;11176;51.448;6.650;2023-04-28T00:17:10;36616.72;;;-141.29;79.51
22025;BME280;11176;51.448;6.650;2023-04-28T00:19:37;36624.69;;;-141.29;80.01
22025;BME280;11176;51.448;6.650;2023-04-28T00:22:04;36724.34;;;-141.29;83.01
22025;BME280;11176;51.448;6.650;2023-04-28T00:24:31;36752.25;;;-141.29;83.36
22025;BME280;11176;51.448;6.650;2023-04-28T00:26:58;36770.19;;;-141.29;83.72
22025;BME280;11176;51.448;6.650;2023-04-28T00:29:28;36847.94;;;-141.29;85.64
22025;BME280;11176;51.448;6.650;2023-04-28T00:31:54;36891.78;;;-141.29;86.92
22025;BME280;11176;51.448;6.650;2023-04-28T00:34:21;36935.63;;;-141.29;87.51
22025;BME280;11176;51.448;6.650;2023-04-28T00:36:47;36923.66;;;-141.29;86.34
22025;BME280;11176;51.448;6.650;2023-04-28T00:39:15;36971.50;;;-141.29;86.87
22025;BME280;11176;51.448;6.650;2023-04-28T00:41:43;37057.22;;;-141.29;88.75
22025;BME280;11176;51.448;6.650;2023-04-28T00:44:10;37079.16;;;-141.29;90.75
22025;BME280;11176;51.448;6.650;2023-04-28T00:46:36;37250.59;;;-141.29;93.19
22025;BME280;11176;51.448;6.650;2023-04-28T00:49:03;37368.22;;;-141.29;94.65
22025;BME280;11176;51.448;6.650;2023-04-28T00:51:29;37475.88;;;-141.29;95.36
22025;BME280;11176;51.448;6.650;2023-04-28T00:53:58;37591.53;;;-141.29;96.26
22025;BME280;11176;51.448;6.650;2023-04-28T00:56:25;37697.19;;;-141.29;96.63
22025;BME280;11176;51.448;6.650;2023-04-28T00:58:53;37840.75;;;-141.29;97.34
22025;BME280;11176;51.448;6.650;2023-04-28T01:01:19;37966.38;;;-141.29;98.24
22025;BME280;11176;51.448;6.650;2023-04-28T01:03:45;38068.06;;;-141.29;98.61
22025;BME280;11176;51.448;6.650;2023-04-28T01:06:14;38227.59;;;-141.29;99.43
22025;BME280;11176;51.448;6.650;2023-04-28T01:08:41;38351.22;;;-141.29;100.00
22025;BME280;11176;51.448;6.650;2023-04-28T01:11:14;38550.66;;;-141.29;100.00
22025;BME280;11176;51.448;6.650;2023-04-28T01:14:04;38720.19;;;-141.29;100.00
22025;BME280;11176;51.448;6.650;2023-04-28T01:16:34;38873.75;;;-141.29;100.00
22025;BME280;11176;51.448;6.650;2023-04-28T01:19:01;38965.50;;;-141.29;100.00
22025;BME280;11176;51.448;6.650;2023-04-28T01:21:33;39061.25;;;-141.29;100.00
22025;BME280;11176;51.448;6.650;2023-04-28T01:24:07;39216.84;;;-141.29;100.00
22025;BME280;11176;51.448;6.650;2023-04-28T01:26:34;39328.53;;;-141.29;100.00
22025;BME280;11176;51.448;6.650;2023-04-28T01:29:00;39444.25;;;-141.29;100.00
22025;BME280;11176;51.448;6.650;2023-04-28T01:31:27;39575.91;;;-141.29;100.00
22025;BME280;11176;51.448;6.650;2023-04-28T01:33:56;39655.72;;;-141.29;100.00
22025;BME280;11176;51.448;6.650;2023-04-28T01:36:23;39795.38;;;-141.29;100.00
22025;BME280;11176;51.448;6.650;2023-04-28T01:38:49;39843.25;;;-141.29;100.00
22025;BME280;11176;51.448;6.650;2023-04-28T01:41:16;39911.06;;;-141.29;100.00
22025;BME280;11176;51.448;6.650;2023-04-28T01:43:43;39952.97;;;-141.29;100.00
22025;BME280;11176;51.448;6.650;2023-04-28T01:46:09;40106.59;;;-141.29;100.00
22025;BME280;11176;51.448;6.650;2023-04-28T01:48:36;40142.53;;;-141.29;100.00
22025;BME280;11176;51.448;6.650;2023-04-28T01:51:04;40278.22;;;-141.29;100.00
22025;BME280;11176;51.448;6.650;2023-04-28T01:53:31;40405.91;;;-141.29;100.00
22025;BME280;11176;51.448;6.650;2023-04-28T01:55:57;40527.63;;;-141.29;100.00
22025;BME280;11176;51.448;6.650;2023-04-28T01:58:24;40661.34;;;-141.29;100.00
22025;BME280;11176;51.448;6.650;2023-04-28T02:00:51;40803.03;;;-141.29;100.00
22025;BME280;11176;51.448;6.650;2023-04-28T02:03:20;40932.75;;;-141.29;100.00
22025;BME280;11176;51.448;6.650;2023-04-28T02:05:46;41048.50;;;-141.29;100.00
22025;BME280;11176;51.448;6.650;2023-04-28T02:08:14;41102.41;;;-141.29;100.00
22025;BME280;11176;51.448;6.650;2023-04-28T02:10:40;41120.34;;;-141.29;100.00
22025;BME280;11176;51.448;6.650;2023-04-28T02:13:07;41148.31;;;-141.29;100.00
22025;BME280;11176;51.448;6.650;2023-04-28T02:15:33;41210.19;;;-141.29;100.00
22025;BME280;11176;51.448;6.650;2023-04-28T02:18:04;41240.13;;;-141.29;100.00
22025;BME280;11176;51.448;6.650;2023-04-28T02:20:31;41292.00;;;-141.29;100.00
22025;BME280;11176;51.448;6.650;2023-04-28T02:22:58;41359.88;;;-141.29;100.00
22025;BME280;11176;51.448;6.650;2023-04-28T02:25:25;41411.78;;;-141.29;100.00
22025;BME280;11176;51.448;6.650;2023-04-28T02:27:51;41485.63;;;-141.29;100.00
22025;BME280;11176;51.448;6.650;2023-04-28T02:30:18;41569.47;;;-141.29;100.00
22025;BME280;11176;51.448;6.650;2023-04-28T02:32:47;41621.34;;;-141.29;100.00
22025;BME280;11176;51.448;6.650;2023-04-28T02:35:15;41645.31;;;-141.29;100.00
22025;BME280;11176;51.448;6.650;2023-04-28T02:37:42;41695.22;;;-141.29;100.00
22025;BME280;11176;51.448;6.650;2023-04-28T02:40:08;41779.06;;;-141.29;100.00
22025;BME280;11176;51.448;6.650;2023-04-28T02:42:35;41826.97;;;-141.29;100.00
22025;BME280;11176;51.448;6.650;2023-04-28T02:45:01;41848.94;;;-141.29;100.00
22025;BME280;11176;51.448;6.650;2023-04-28T02:47:28;41878.88;;;-141.29;100.00
22025;BME280;11176;51.448;6.650;2023-04-28T02:49:54;41934.78;;;-141.29;100.00
22025;BME280;11176;51.448;6.650;2023-04-28T02:52:21;41970.72;;;-141.29;100.00
22025;BME280;11176;51.448;6.650;2023-04-28T02:54:47;41970.72;;;-141.29;100.00
22025;BME280;11176;51.448;6.650;2023-04-28T02:57:15;41992.66;;;-141.29;100.00
22025;BME280;11176;51.448;6.650;2023-04-28T02:59:42;42024.59;;;-141.29;100.00
22025;BME280;11176;51.448;6.650;2023-04-28T03:02:08;42082.50;;;-141.29;100.00
22025;BME280;11176;51.448;6.650;2023-04-28T03:04:35;42070.53;;;-141.29;100.00
22025;BME280;11176;51.448;6.650;2023-04-28T03:07:02;42084.50;;;-141.29;100.00
22025;BME280;11176;51.448;6.650;2023-04-28T03:09:28;42142.41;;;-141.29;100.00
22025;BME280;11176;51.448;6.650;2023-04-28T03:11:55;42186.31;;;-141.29;100.00
22025;BME280;11176;51.448;6.650;2023-04-28T03:14:21;42226.25;;;-141.29;100.00
22025;BME280;11176;51.448;6.650;2023-04-28T03:16:48;42226.25;;;-141.29;100.00
22025;BME280;11176;51.448;6.650;2023-04-28T03:19:15;42254.19;;;-141.29;100.00
22025;BME280;11176;51.448;6.650;2023-04-28T03:21:41;42250.22;;;-141.29;100.00
22025;BME280;11176;51.448;6.650;2023-04-28T03:24:08;42284.16;;;-141.29;100.00
22025;BME280;11176;51.448;6.650;2023-04-28T03:26:34;42250.22;;;-141.29;100.00
22025;BME280;11176;51.448;6.650;2023-04-28T03:29:02;42302.13;;;-141.29;100.00
22025;BME280;11176;51.448;6.650;2023-04-28T03:31:29;42302.13;;;-141.29;100.00
22025;BME280;11176;51.448;6.650;2023-04-28T03:33:55;42306.13;;;-141.29;100.00
22025;BME280;11176;51.448;6.650;2023-04-28T03:36:25;42294.13;;;-141.29;100.00
22025;BME280;11176;51.448;6.650;2023-04-28T03:39:00;42318.09;;;-141.29;100.00
22025;BME280;11176;51.448;6.650;2023-04-28T03:41:29;42306.13;;;-141.29;100.00
22025;BME280;11176;51.448;6.650;2023-04-28T03:44:16;42310.09;;;-141.29;100.00
22025;BME280;11176;51.448;6.650;2023-04-28T03:46:48;42326.09;;;-141.29;100.00
22025;BME280;11176;51.448;6.650;2023-04-28T03:49:14;42322.09;;;-141.29;100.00
22025;BME280;11176;51.448;6.650;2023-04-28T03:51:41;42332.06;;;-141.29;100.00
22025;BME280;11176;51.448;6.650;2023-04-28T03:54:08;42328.06;;;-141.29;100.00
22025;BME280;11176;51.448;6.650;2023-04-28T03:56:35;42346.03;;;-141.29;100.00
22025;BME280;11176;51.448;6.650;2023-04-28T03:59:02;42342.06;;;-141.29;100.00
22025;BME280;11176;51.448;6.650;2023-04-28T04:01:29;42358.03;;;-141.29;100.00
22025;BME280;11176;51.448;6.650;2023-04-28T04:03:55;42358.03;;;-141.29;100.00
22025;BME280;11176;51.448;6.650;2023-04-28T04:06:22;42354.03;;;-141.29;100.00
22025;BME280;11176;51.448;6.650;2023-04-28T04:08:49;42366.00;;;-141.29;100.00
22025;BME280;11176;51.448;6.650;2023-04-28T04:11:16;42348.03;;;-141.29;100.00
22025;BME280;11176;51.448;6.650;2023-04-28T04:13:43;42354.03;;;-141.29;100.00
22025;BME280;11176;51.448;6.650;2023-04-28T04:16:13;42366.00;;;-141.29;100.00
22025;BME280;11176;51.448;6.650;2023-04-28T04:18:41;42366.00;;;-141.29;100.00
22025;BME280;11176;51.448;6.650;2023-04-28T04:21:19;42378.00;;;-141.29;100.00
22025;BME280;11176;51.448;6.650;2023-04-28T04:23:48;42342.06;;;-141.29;100.00
22025;BME280;11176;51.448;6.650;2023-04-28T04:26:15;42383.97;;;-141.29;100.00
22025;BME280;11176;51.448;6.650;2023-04-28T04:28:41;42376.00;;;-141.29;100.00
22025;BME280;11176;51.448;6.650;2023-04-28T04:31:09;42376.00;;;-141.29;100.00
22025;BME280;11176;51.448;6.650;2023-04-28T04:33:35;42385.97;;;-141.29;100.00
22025;BME280;11176;51.448;6.650;2023-04-28T04:36:05;42419.91;;;-141.29;100.00
22025;BME280;11176;51.448;6.650;2023-04-28T04:38:32;42401.94;;;-141.29;100.00
22025;BME280;11176;51.448;6.650;2023-04-28T04:41:08;42397.97;;;-141.29;100.00
22025;BME280;11176;51.448;6.650;2023-04-28T04:43:34;42405.94;;;-141.29;100.00
22025;BME280;11176;51.448;6.650;2023-04-28T04:46:01;42409.94;;;-141.29;100.00
22025;BME280;11176;51.448;6.650;2023-04-28T04:48:29;42405.94;;;-141.29;100.00
22025;BME280;11176;51.448;6.650;2023-04-28T04:50:57;42433.91;;;-141.29;100.00
22025;BME280;11176;51.448;6.650;2023-04-28T04:53:24;42439.88;;;-141.29;100.00
22025;BME280;11176;51.448;6.650;2023-04-28T04:55:53;42419.91;;;-141.29;100.00
22025;BME280;11176;51.448;6.650;2023-04-28T04:58:20;42405.94;;;-141.29;100.00
22025;BME280;11176;51.448;6.650;2023-04-28T05:00:55;42409.94;;;-141.29;100.00
22025;BME280;11176;51.448;6.650;2023-04-28T05:03:22;42429.91;;;-141.29;100.00
22025;BME280;11176;51.448;6.650;2023-04-28T05:05:49;42429.91;;;-141.29;100.00
22025;BME280;11176;51.448;6.650;2023-04-28T05:08:24;42449.88;;;-141.29;100.00
22025;BME280;11176;51.448;6.650;2023-04-28T05:10:51;42433.91;;;-141.29;100.00
22025;BME280;11176;51.448;6.650;2023-04-28T05:13:18;42443.88;;;-141.29;100.00
22025;BME280;11176;51.448;6.650;2023-04-28T05:15:47;42437.88;;;-141.29;100.00
22025;BME280;11176;51.448;6.650;2023-04-28T05:18:34;42441.88;;;-141.29;100.00
22025;BME280;11176;51.448;6.650;2023-04-28T05:21:01;42445.88;;;-141.29;100.00
22025;BME280;11176;51.448;6.650;2023-04-28T05:23:27;42433.91;;;-141.29;100.00
22025;BME280;11176;51.448;6.650;2023-04-28T05:25:54;42453.88;;;-141.29;100.00
22025;BME280;11176;51.448;6.650;2023-04-28T05:28:20;42437.88;;;-141.29;100.00
22025;BME280;11176;51.448;6.650;2023-04-28T05:30:50;42425.91;;;-141.29;100.00
22025;BME280;11176;51.448;6.650;2023-04-28T05:33:17;42445.88;;;-141.29;100.00
22025;BME280;11176;51.448;6.650;2023-04-28T05:35:43;42473.84;;;-141.29;100.00
22025;BME280;11176;51.448;6.650;2023-04-28T05:38:11;42457.84;;;-141.29;100.00
22025;BME280;11176;51.448;6.650;2023-04-28T05:40:37;42457.84;;;-141.29;100.00
22025;BME280;11176;51.448;6.650;2023-04-28T05:43:04;42449.88;;;-141.29;100.00
22025;BME280;11176;51.448;6.650;2023-04-28T05:45:30;42469.84;;;-141.29;100.00
22025;BME280;11176;51.448;6.650;2023-04-28T05:47:57;42469.84;;;-141.29;100.00
22025;BME280;11176;51.448;6.650;2023-04-28T05:50:23;42467.84;;;-141.29;100.00
22025;BME280;11176;51.448;6.650;2023-04-28T05:52:52;42443.88;;;-141.29;100.00
22025;BME280;11176;51.448;6.650;2023-04-28T05:55:19;42471.84;;;-141.29;100.00
22025;BME280;11176;51.448;6.650;2023-04-28T05:57:45;42433.91;;;-141.29;100.00
22025;BME280;11176;51.448;6.650;2023-04-28T06:00:19;42449.88;;;-141.29;100.00
22025;BME280;11176;51.448;6.650;2023-04-28T06:02:50;42461.84;;;-141.29;100.00
22025;BME280;11176;51.448;6.650;2023-04-28T06:05:17;42479.81;;;-141.29;100.00
22025;BME280;11176;51.448;6.650;2023-04-28T06:07:45;42477.81;;;-141.29;100.00
22025;BME280;11176;51.448;6.650;2023-04-28T06:10:15;42461.84;;;-141.29;100.00
22025;BME280;11176;51.448;6.650;2023-04-28T06:12:42;42459.84;;;-141.29;100.00
22025;BME280;11176;51.448;6.650;2023-04-28T06:15:08;42507.78;;;-141.29;100.00
22025;BME280;11176;51.448;6.650;2023-04-28T06:17:35;42497.78;;;-141.29;100.00
22025;BME280;11176;51.448;6.650;2023-04-28T06:20:03;42513.75;;;-141.29;100.00
22025;BME280;11176;51.448;6.650;2023-04-28T06:22:30;42485.81;;;-141.29;100.00
22025;BME280;11176;51.448;6.650;2023-04-28T06:24:56;42481.81;;;-141.29;100.00
22025;BME280;11176;51.448;6.650;2023-04-28T06:27:37;42469.84;;;-141.29;100.00
22025;BME280;11176;51.448;6.650;2023-04-28T06:30:04;42479.81;;;-141.29;100.00
22025;BME280;11176;51.448;6.650;2023-04-28T06:32:31;42497.78;;;-141.29;100.00
22025;BME280;11176;51.448;6.650;2023-04-28T06:34:58;42505.78;;;-141.29;100.00
22025;BME280;11176;51.448;6.650;2023-04-28T06:37:25;42499.78;;;-141.29;100.00
22025;BME280;11176;51.448;6.650;2023-04-28T06:39:52;42509.78;;;-141.29;100.00
22025;BME280;11176;51.448;6.650;2023-04-28T06:42:18;42499.78;;;-141.29;100.00
22025;BME280;11176;51.448;6.650;2023-04-28T06:44:54;42497.78;;;-141.29;100.00
22025;BME280;11176;51.448;6.650;2023-04-28T06:47:21;42505.78;;;-141.29;100.00
22025;BME280;11176;51.448;6.650;2023-04-28T06:49:47;42525.75;;;-141.29;100.00
22025;BME280;11176;51.448;6.650;2023-04-28T06:52:15;42509.78;;;-141.29;100.00
22025;BME280;11176;51.448;6.650;2023-04-28T06:54:42;42511.78;;;-141.29;100.00
22025;BME280;11176;51.448;6.650;2023-04-28T06:57:08;42509.78;;;-141.29;100.00
22025;BME280;11176;51.448;6.650;2023-04-28T06:59:35;42513.75;;;-141.29;100.00
22025;BME280;11176;51.448;6.650;2023-04-28T07:02:01;42537.72;;;-141.29;100.00
22025;BME280;11176;51.448;6.650;2023-04-28T07:04:28;42541.72;;;-141.29;100.00
22025;BME280;11176;51.448;6.650;2023-04-28T07:06:55;42541.72;;;-141.29;100.00
22025;BME280;11176;51.448;6.650;2023-04-28T07:09:22;42519.75;;;-141.29;100.00
22025;BME280;11176;51.448;6.650;2023-04-28T07:11:49;42533.72;;;-141.29;100.00
22025;BME280;11176;51.448;6.650;2023-04-28T07:14:15;42541.72;;;-141.29;100.00
22025;BME280;11176;51.448;6.650;2023-04-28T07:16:42;42545.72;;;-141.29;100.00
22025;BME280;11176;51.448;6.650;2023-04-28T07:19:09;42525.75;;;-141.29;100.00
22025;BME280;11176;51.448;6.650;2023-04-28T07:21:35;42497.78;;;-141.29;100.00
22025;BME280;11176;51.448;6.650;2023-04-28T07:24:02;42485.81;;;-141.29;100.00
22025;BME280;11176;51.448;6.650;2023-04-28T07:26:28;42449.88;;;-141.29;100.00
22025;BME280;11176;51.448;6.650;2023-04-28T07:28:55;42429.91;;;-141.29;100.00
22025;BME280;11176;51.448;6.650;2023-04-28T07:31:21;42395.97;;;-141.29;100.00
22025;BME280;11176;51.448;6.650;2023-04-28T07:33:48;42413.94;;;-141.29;100.00
22025;BME280;11176;51.448;6.650;2023-04-28T07:36:14;42381.97;;;-141.29;100.00
22025;BME280;11176;51.448;6.650;2023-04-28T07:38:41;42385.97;;;-141.29;100.00
22025;BME280;11176;51.448;6.650;2023-04-28T07:41:07;42385.97;;;-141.29;100.00
22025;BME280;11176;51.448;6.650;2023-04-28T07:43:37;42411.94;;;-141.29;100.00
22025;BME280;11176;51.448;6.650;2023-04-28T07:46:03;42381.97;;;-141.29;100.00
22025;BME280;11176;51.448;6.650;2023-04-28T07:48:30;42352.03;;;-141.29;100.00
22025;BME280;11176;51.448;6.650;2023-04-28T07:50:57;42362.03;;;-141.29;100.00
22025;BME280;11176;51.448;6.650;2023-04-28T07:53:24;42350.03;;;-141.29;99.57
22025;BME280;11176;51.448;6.650;2023-04-28T07:55:50;42322.09;;;-141.29;98.74
22025;BME280;11176;51.448;6.650;2023-04-28T07:58:17;42338.06;;;-141.29;99.48
22025;BME280;11176;51.448;6.650;2023-04-28T08:00:45;42350.03;;;-141.29;98.64
22025;BME280;11176;51.448;6.650;2023-04-28T08:03:11;42346.03;;;-141.29;98.46
22025;BME280;11176;51.448;6.650;2023-04-28T08:05:38;42318.09;;;-141.29;98.50
22025;BME280;11176;51.448;6.650;2023-04-28T08:08:06;42322.09;;;-141.29;98.11
22025;BME280;11176;51.448;6.650;2023-04-28T08:10:32;42336.06;;;-141.29;97.87
22025;BME280;11176;51.448;6.650;2023-04-28T08:12:58;42302.13;;;-141.29;97.22
22025;BME280;11176;51.448;6.650;2023-04-28T08:15:25;42318.09;;;-141.29;98.48
22025;BME280;11176;51.448;6.650;2023-04-28T08:17:52;42310.09;;;-141.29;97.81
22025;BME280;11176;51.448;6.650;2023-04-28T08:20:19;42326.09;;;-141.29;97.84
22025;BME280;11176;51.448;6.650;2023-04-28T08:22:51;42294.13;;;-141.29;97.31
22025;BME280;11176;51.448;6.650;2023-04-28T08:25:18;42314.09;;;-141.29;97.63
22025;BME280;11176;51.448;6.650;2023-04-28T08:27:44;42310.09;;;-141.29;98.21
22025;BME280;11176;51.448;6.650;2023-04-28T08:30:11;42322.09;;;-141.29;98.75
22025;BME280;11176;51.448;6.650;2023-04-28T08:32:38;42340.06;;;-141.29;98.46
22025;BME280;11176;51.448;6.650;2023-04-28T08:35:05;42314.09;;;-141.29;97.52
22025;BME280;11176;51.448;6.650;2023-04-28T08:37:32;42318.09;;;-141.29;96.27
22025;BME280;11176;51.448;6.650;2023-04-28T08:39:59;42298.13;;;-141.29;96.12
22025;BME280;11176;51.448;6.650;2023-04-28T08:42:30;42322.09;;;-141.29;96.90
22025;BME280;11176;51.448;6.650;2023-04-28T08:44:57;42314.09;;;-141.29;97.45
22025;BME280;11176;51.448;6.650;2023-04-28T08:47:35;42322.09;;;-141.29;97.18
22025;BME280;11176;51.448;6.650;2023-04-28T08:50:03;42334.06;;;-141.29;97.01
22025;BME280;11176;51.448;6.650;2023-04-28T08:52:31;42314.09;;;-141.29;97.03
22025;BME280;11176;51.448;6.650;2023-04-28T08:54:59;42314.09;;;-141.29;98.23
22025;BME280;11176;51.448;6.650;2023-04-28T08:57:29;42328.06;;;-141.29;98.39
22025;BME280;11176;51.448;6.650;2023-04-28T08:59:59;42346.03;;;-141.29;98.91
22025;BME280;11176;51.448;6.650;2023-04-28T09:02:26;42350.03;;;-141.29;99.69
22025;BME280;11176;51.448;6.650;2023-04-28T09:04:53;42354.03;;;-141.29;100.00
22025;BME280;11176;51.448;6.650;2023-04-28T09:07:20;42360.03;;;-141.29;100.00
22025;BME280;11176;51.448;6.650;2023-04-28T09:09:47;42354.03;;;-141.29;100.00
22025;BME280;11176;51.448;6.650;2023-04-28T09:12:13;42370.00;;;-141.29;100.00
22025;BME280;11176;51.448;6.650;2023-04-28T09:14:40;42352.03;;;-141.29;99.47
22025;BME280;11176;51.448;6.650;2023-04-28T09:17:11;42342.06;;;-141.29;98.94
22025;BME280;11176;51.448;6.650;2023-04-28T09:19:39;42350.03;;;-141.29;99.53
22025;BME280;11176;51.448;6.650;2023-04-28T09:22:08;42346.03;;;-141.29;99.52
22025;BME280;11176;51.448;6.650;2023-04-28T09:24:52;42344.06;;;-141.29;99.10
22025;BME280;11176;51.448;6.650;2023-04-28T09:27:25;42356.03;;;-141.29;99.13
22025;BME280;11176;51.448;6.650;2023-04-28T09:29:53;42332.06;;;-141.29;98.77
22025;BME280;11176;51.448;6.650;2023-04-28T09:32:21;42350.03;;;-141.29;97.88
22025;BME280;11176;51.448;6.650;2023-04-28T09:34:50;42322.09;;;-141.29;98.50
22025;BME280;11176;51.448;6.650;2023-04-28T09:37:19;42350.03;;;-141.29;98.42
22025;BME280;11176;51.448;6.650;2023-04-28T09:39:47;42362.03;;;-141.29;98.69
22025;BME280;11176;51.448;6.650;2023-04-28T09:47:31;42342.06;;;-141.29;97.72
22025;BME280;11176;51.448;6.650;2023-04-28T09:50:00;42358.03;;;-141.29;97.84
22025;BME280;11176;51.448;6.650;2023-04-28T09:52:28;42354.03;;;-141.29;97.48
22025;BME280;11176;51.448;6.650;2023-04-28T09:54:55;42330.06;;;-141.29;96.48
22025;BME280;11176;51.448;6.650;2023-04-28T09:57:22;42340.06;;;-141.29;96.82
22025;BME280;11176;51.448;6.650;2023-04-28T09:59:51;42306.13;;;-141.29;96.83
22025;BME280;11176;51.448;6.650;2023-04-28T10:02:19;42314.09;;;-141.29;96.83
22025;BME280;11176;51.448;6.650;2023-04-28T10:05:07;42308.09;;;-141.29;96.98
22025;BME280;11176;51.448;6.650;2023-04-28T10:07:36;42302.13;;;-141.29;97.14
22025;BME280;11176;51.448;6.650;2023-04-28T10:10:02;42342.06;;;-141.29;96.97
22025;BME280;11176;51.448;6.650;2023-04-28T10:12:31;42334.06;;;-141.29;96.91
22025;BME280;11176;51.448;6.650;2023-04-28T10:14:58;42318.09;;;-141.29;96.78
22025;BME280;11176;51.448;6.650;2023-04-28T10:17:25;42310.09;;;-141.29;96.63
22025;BME280;11176;51.448;6.650;2023-04-28T10:19:53;42314.09;;;-141.29;96.87
22025;BME280;11176;51.448;6.650;2023-04-28T10:25:30;42326.09;;;-141.29;97.76
22025;BME280;11176;51.448;6.650;2023-04-28T10:27:58;42334.06;;;-141.29;97.89
22025;BME280;11176;51.448;6.650;2023-04-28T10:30:26;42334.06;;;-141.29;98.12
22025;BME280;11176;51.448;6.650;2023-04-28T10:35:39;42344.06;;;-141.29;98.71
22025;BME280;11176;51.448;6.650;2023-04-28T10:38:08;42328.06;;;-141.29;99.33
22025;BME280;11176;51.448;6.650;2023-04-28T10:40:37;42346.03;;;-141.29;100.00
22025;BME280;11176;51.448;6.650;2023-04-28T10:43:06;42342.06;;;-141.29;100.00
22025;BME280;11176;51.448;6.650;2023-04-28T10:48:15;42334.06;;;-141.29;100.00
22025;BME280;11176;51.448;6.650;2023-04-28T10:56:17;42348.03;;;-141.29;100.00
22025;BME280;11176;51.448;6.650;2023-04-28T10:58:45;42366.00;;;-141.29;100.00
22025;BME280;11176;51.448;6.650;2023-04-28T11:06:20;42389.97;;;-141.29;100.00
22025;BME280;11176;51.448;6.650;2023-04-28T11:08:55;42391.97;;;-141.29;100.00
22025;BME280;11176;51.448;6.650;2023-04-28T11:11:24;42401.94;;;-141.29;100.00
22025;BME280;11176;51.448;6.650;2023-04-28T11:19:31;42417.94;;;-141.29;100.00
22025;BME280;11176;51.448;6.650;2023-04-28T11:22:00;42421.91;;;-141.29;100.00
22025;BME280;11176;51.448;6.650;2023-04-28T11:24:28;42421.91;;;-141.29;100.00
22025;BME280;11176;51.448;6.650;2023-04-28T11:26:58;42461.84;;;-141.29;100.00
22025;BME280;11176;51.448;6.650;2023-04-28T11:29:38;42445.88;;;-141.29;100.00
22025;BME280;11176;51.448;6.650;2023-04-28T11:32:06;42461.84;;;-141.29;100.00
22025;BME280;11176;51.448;6.650;2023-04-28T11:34:33;42459.84;;;-141.29;100.00
22025;BME280;11176;51.448;6.650;2023-04-28T11:37:01;42473.84;;;-141.29;100.00
22025;BME280;11176;51.448;6.650;2023-04-28T11:39:29;42479.81;;;-141.29;100.00
22025;BME280;11176;51.448;6.650;2023-04-28T11:41:58;42485.81;;;-141.29;100.00
22025;BME280;11176;51.448;6.650;2023-04-28T11:44:27;42527.75;;;-141.29;100.00
22025;BME280;11176;51.448;6.650;2023-04-28T11:46:59;42493.78;;;-141.29;100.00
22025;BME280;11176;51.448;6.650;2023-04-28T11:49:31;42521.75;;;-141.29;100.00
22025;BME280;11176;51.448;6.650;2023-04-28T11:52:07;42511.78;;;-141.29;100.00
22025;BME280;11176;51.448;6.650;2023-04-28T11:54:34;42513.75;;;-141.29;100.00
22025;BME280;11176;51.448;6.650;2023-04-28T11:57:03;42533.72;;;-141.29;100.00
22025;BME280;11176;51.448;6.650;2023-04-28T11:59:31;42553.69;;;-141.29;100.00
22025;BME280;11176;51.448;6.650;2023-04-28T12:02:01;42541.72;;;-141.29;100.00
22025;BME280;11176;51.448;6.650;2023-04-28T12:09:30;42571.66;;;-141.29;100.00
22025;BME280;11176;51.448;6.650;2023-04-28T12:12:02;42557.69;;;-141.29;100.00
22025;BME280;11176;51.448;6.650;2023-04-28T12:14:30;42541.72;;;-141.29;100.00
22025;BME280;11176;51.448;6.650;2023-04-28T12:17:00;42541.72;;;-141.29;100.00
22025;BME280;11176;51.448;6.650;2023-04-28T12:19:27;42537.72;;;-141.29;100.00
22025;BME280;11176;51.448;6.650;2023-04-28T12:22:04;42549.72;;;-141.29;100.00
22025;BME280;11176;51.448;6.650;2023-04-28T12:24:32;42561.69;;;-141.29;100.00
22025;BME280;11176;51.448;6.650;2023-04-28T12:27:13;42533.72;;;-141.29;100.00
22025;BME280;11176;51.448;6.650;2023-04-28T12:29:42;42549.72;;;-141.29;100.00
22025;BME280;11176;51.448;6.650;2023-04-28T12:32:11;42553.69;;;-141.29;100.00
22025;BME280;11176;51.448;6.650;2023-04-28T12:34:39;42569.66;;;-141.29;100.00
22025;BME280;11176;51.448;6.650;2023-04-28T12:37:06;42585.66;;;-141.29;100.00
22025;BME280;11176;51.448;6.650;2023-04-28T12:39:35;42589.63;;;-141.29;100.00
22025;BME280;11176;51.448;6.650;2023-04-28T12:42:05;42589.63;;;-141.29;100.00
22025;BME280;11176;51.448;6.650;2023-04-28T12:44:36;42573.66;;;-141.29;100.00
22025;BME280;11176;51.448;6.650;2023-04-28T12:47:07;42597.63;;;-141.29;100.00
22025;BME280;11176;51.448;6.650;2023-04-28T12:49:34;42589.63;;;-141.29;99.63
22025;BME280;11176;51.448;6.650;2023-04-28T12:52:02;42573.66;;;-141.29;97.67
22025;BME280;11176;51.448;6.650;2023-04-28T12:54:29;42531.72;;;-141.29;94.59
22025;BME280;11176;51.448;6.650;2023-04-28T12:56:56;42519.75;;;-141.29;92.94
22025;BME280;11176;51.448;6.650;2023-04-28T12:59:23;42509.78;;;-141.29;90.77
22025;BME280;11176;51.448;6.650;2023-04-28T13:01:49;42497.78;;;-141.29;90.26
22025;BME280;11176;51.448;6.650;2023-04-28T13:04:17;42479.81;;;-141.29;89.14
22025;BME280;11176;51.448;6.650;2023-04-28T13:06:44;42433.91;;;-141.29;88.14
22025;BME280;11176;51.448;6.650;2023-04-28T13:09:10;42443.88;;;-141.29;88.54
22025;BME280;11176;51.448;6.650;2023-04-28T13:11:38;42449.88;;;-141.29;89.52